Etusivu
METAR-TAF:

METAR-TAF

Lentoasemat :

Iqaluitin lentoasema

Iqaluit, Nunavut, Kanada

Leveyspiiri: 63-45N, Pituuspiiri: 068-33W, korkeus merenpinnasta: 34 m

Tämänhetkinen sää

Tämä raportti tehtiin 58 minuuttia sitten, kello 10.00 UTC
Tuuli 7 kn pohjoisen/luoteesta
Lämpötila -32°C
Kosteus 61%
Ilmanpaine 1025 hPa
Näkyvyys: 24.1 km
Muutamia pilviä 5000 ft:n korkeudessa
jääkiteitä

METAR: CYFB 261000Z 33007KT 15SM IC FEW050 M32/M37 A3028 RMK SC2 SLP262

Aika: 05:58 (10:58 UTC)

Sääennuste

Tämä raportti tehtiin 5 tuntia ja 20 minuuttia sitten, kello 05.38 UTC
Ennuste voimassa 26. päivästä klo 06 UTC - 27. päivään klo 06 UTC
Tuuli 15 kn pohjoisen/luoteesta
Näkyvyys: 10 km
selkeää
From 26. päivästä klo 1200 UTC
Tuuli 15 kn luoteesta
Näkyvyys: 10 km
Hajanaisia pilviä 2000 ft:n korkeudessa
Hajonneita pilviä 4000 ft:n korkeudessa
heikkoa lumisadetta

TAF: CYFB 260538Z 2606/2706 33015KT P6SM SKC FM261200 32015KT P6SM -SN SCT020 BKN040 RMK NXT FCST BY 261200Z

Säähavainnot ja -ennusteet yli 4000 lentoasemalta (METAR- ja TAF-raportit).

Käytössä olevat sääasemat on merkitty karttaan keltaisilla ja punaisilla pisteillä.

Aseta hiiri pisteen päälle nähdäksesi sääaseman nimen.

Klikkaa sitten nähdäksesi säähavainnot ja -ennusteet.

Kartan vaihtaminen: klikkaa mustalla rastilla varustettuja vihreitä pisteitä, niin voit zoomata sisään; viivalla varustettua vihreää pistettä, niin voit zoomata ulos tai vihreitä nuolia, niin pääset viereisille kartoille.


METAR-TAF: